Time;durP1;ratioP1;P1;durP2;ratioP2;P2;SDS_P1;SDS_P2;PMS_P1;PMS_P2;Temp;Humidity;BMP_temperature;BMP_pressure;BME280_temperature;BME280_humidity;BME280_pressure;Samples;Min_cycle;Max_cycle;Signal;HPM_P1;HPM_P2
2022/10/11 00:01:47;;;;;;;11.68;5.85;;;;;;;;;;5052913;28;20025;-77
2022/10/11 00:04:12;;;;;;;16.02;5.90;;;;;;;;;;5053044;28;20083;-75
2022/10/11 00:06:38;;;;;;;13.15;6.25;;;;;;;;;;5052916;28;20013;-76
2022/10/11 00:09:04;;;;;;;8.40;5.32;;;;;;;;;;5051743;28;20033;-77
2022/10/11 00:11:29;;;;;;;9.07;5.30;;;;;;;;;;5052986;28;20059;-76
2022/10/11 00:13:55;;;;;;;10.98;5.70;;;;;;;;;;5051786;28;20068;-77
2022/10/11 00:16:20;;;;;;;9.93;5.60;;;;;;;;;;5053216;28;20017;-77
2022/10/11 00:18:45;;;;;;;9.38;5.07;;;;;;;;;;5053402;28;20488;-77
2022/10/11 00:21:13;;;;;;;8.18;5.10;;;;;;;;;;5057362;28;20025;-77
2022/10/11 00:23:39;;;;;;;8.95;4.93;;;;;;;;;;5056018;28;20055;-78
2022/10/11 00:26:06;;;;;;;10.55;5.38;;;;;;;;;;5056427;28;20060;-77
2022/10/11 00:28:32;;;;;;;8.90;4.82;;;;;;;;;;5057450;28;20059;-76
2022/10/11 00:30:58;;;;;;;10.85;5.68;;;;;;;;;;5056965;28;20029;-76
2022/10/11 00:33:23;;;;;;;9.32;5.10;;;;;;;;;;5055722;28;20393;-76
2022/10/11 00:35:48;;;;;;;10.32;5.13;;;;;;;;;;5055687;28;20021;-77
2022/10/11 00:38:14;;;;;;;8.77;5.07;;;;;;;;;;5057091;28;20398;-75
2022/10/11 00:40:40;;;;;;;13.48;5.18;;;;;;;;;;5056902;28;20070;-76
2022/10/11 00:43:15;;;;;;;9.68;5.90;;;;;;;;;;5056691;28;20462;-76
2022/10/11 00:45:55;;;;;;;11.77;4.90;;;;;;;;;;5056611;28;20013;-75
2022/10/11 00:48:23;;;;;;;11.10;5.40;;;;;;;;;;5056483;28;20034;-76
2022/10/11 00:50:48;;;;;;;10.40;5.45;;;;;;;;;;5055062;28;20025;-76
2022/10/11 00:53:14;;;;;;;13.60;5.35;;;;;;;;;;5056513;28;20021;-77
2022/10/11 00:55:46;;;;;;;10.70;5.40;;;;;;;;;;5056388;28;20017;-77
2022/10/11 00:58:12;;;;;;;12.57;5.25;;;;;;;;;;5055152;28;20171;-76
2022/10/11 01:00:37;;;;;;;8.98;4.60;;;;;;;;;;5056194;28;20063;-75
2022/10/11 01:03:04;;;;;;;8.57;5.15;;;;;;;;;;5056647;28;20124;-75
2022/10/11 01:05:30;;;;;;;11.63;5.05;;;;;;;;;;5056159;28;20454;-76
2022/10/11 01:07:58;;;;;;;8.90;5.10;;;;;;;;;;5056355;28;20498;-76
2022/10/11 01:10:24;;;;;;;14.27;4.80;;;;;;;;;;5054856;28;20025;-76
2022/10/11 01:13:17;;;;;;;8.95;5.13;;;;;;;;;;5056323;28;20067;-75
2022/10/11 01:15:50;;;;;;;9.90;5.20;;;;;;;;;;5056097;28;20508;-77
2022/10/11 01:18:19;;;;;;;10.98;5.25;;;;;;;;;;5056442;28;20024;-77
2022/10/11 01:21:07;;;;;;;10.88;5.35;;;;;;;;;;5055833;28;20100;-76
2022/10/11 01:24:01;;;;;;;8.68;4.68;;;;;;;;;;5054670;28;20060;-76
2022/10/11 01:26:48;;;;;;;8.82;5.00;;;;;;;;;;5056533;28;20051;-76
2022/10/11 01:29:38;;;;;;;9.10;5.13;;;;;;;;;;5056396;28;20040;-75
2022/10/11 01:32:18;;;;;;;9.73;4.88;;;;;;;;;;5054638;28;20059;-76
2022/10/11 01:35:04;;;;;;;8.25;4.70;;;;;;;;;;5056059;28;20033;-77
2022/10/11 01:37:33;;;;;;;8.77;4.68;;;;;;;;;;5055930;28;20462;-77
2022/10/11 01:40:04;;;;;;;11.45;4.78;;;;;;;;;;5055779;28;20099;-76
2022/10/11 01:42:30;;;;;;;10.32;4.70;;;;;;;;;;5055547;28;20028;-75
2022/10/11 01:44:57;;;;;;;10.63;4.90;;;;;;;;;;5055462;28;20070;-76
2022/10/11 01:47:24;;;;;;;8.00;4.63;;;;;;;;;;5055579;28;20458;-76
2022/10/11 01:49:58;;;;;;;9.35;5.07;;;;;;;;;;5054288;28;20021;-77
2022/10/11 01:52:25;;;;;;;;;;;;;;;;;;5055820;28;20111;-75
2022/10/11 01:55:07;;;;;;;8.02;4.63;;;;;;;;;;5055409;28;19962;-75
2022/10/11 01:58:15;;;;;;;7.80;4.50;;;;;;;;;;5059266;28;20049;-77
2022/10/11 02:00:49;;;;;;;10.35;4.85;;;;;;;;;;4998255;28;20031;-77
2022/10/11 02:03:23;;;;;;;11.75;4.60;;;;;;;;;;5051164;28;20041;-75
2022/10/11 02:06:11;;;;;;;9.82;5.03;;;;;;;;;;5055524;28;20037;-76
2022/10/11 02:09:09;;;;;;;8.35;4.50;;;;;;;;;;5056020;28;20120;-76
2022/10/11 02:11:36;;;;;;;8.57;3.97;;;;;;;;;;5055320;28;20029;-75
2022/10/11 02:14:12;;;;;;;8.70;4.47;;;;;;;;;;5055126;28;20033;-76
2022/10/11 02:16:44;;;;;;;7.70;4.47;;;;;;;;;;5054885;28;20025;-76
2022/10/11 02:19:14;;;;;;;9.18;4.60;;;;;;;;;;5055492;28;20067;-76
2022/10/11 02:21:43;;;;;;;11.27;4.75;;;;;;;;;;5053522;28;20112;-76
2022/10/11 02:24:12;;;;;;;7.88;4.05;;;;;;;;;;5054845;28;20048;-76
2022/10/11 02:26:42;;;;;;;8.20;4.47;;;;;;;;;;5055428;28;20446;-75
2022/10/11 02:29:11;;;;;;;8.50;4.60;;;;;;;;;;5054685;28;20043;-75
2022/10/11 02:31:38;;;;;;;9.30;4.68;;;;;;;;;;5054751;28;20029;-75
2022/10/11 02:34:28;;;;;;;12.10;5.00;;;;;;;;;;5053272;28;20060;-76
2022/10/11 02:37:20;;;;;;;12.00;4.68;;;;;;;;;;5054750;28;20078;-76
2022/10/11 02:40:03;;;;;;;6.82;4.50;;;;;;;;;;5053560;28;20032;-76
2022/10/11 02:42:35;;;;;;;9.07;4.20;;;;;;;;;;5052951;28;20028;-76
2022/10/11 02:45:06;;;;;;;13.05;4.82;;;;;;;;;;5054374;28;20795;-76
2022/10/11 02:47:31;;;;;;;9.52;4.28;;;;;;;;;;5054153;28;20033;-74
2022/10/11 02:49:58;;;;;;;10.27;4.60;;;;;;;;;;5054236;28;20036;-76
2022/10/11 02:52:24;;;;;;;9.10;4.50;;;;;;;;;;5054092;28;20557;-76
2022/10/11 02:54:49;;;;;;;11.00;4.80;;;;;;;;;;5054126;28;20107;-76
2022/10/11 02:57:15;;;;;;;9.93;4.32;;;;;;;;;;5054099;28;20066;-76
2022/10/11 02:59:40;;;;;;;11.27;4.68;;;;;;;;;;5054337;28;20021;-76
2022/10/11 03:02:06;;;;;;;9.20;4.90;;;;;;;;;;5053855;28;20037;-75
2022/10/11 03:04:31;;;;;;;8.32;4.40;;;;;;;;;;5052625;28;20189;-76
2022/10/11 03:06:56;;;;;;;6.93;4.40;;;;;;;;;;5052601;28;20025;-76
2022/10/11 03:09:21;;;;;;;9.70;4.45;;;;;;;;;;5054006;28;20033;-75
2022/10/11 03:11:47;;;;;;;6.05;3.60;;;;;;;;;;5053704;28;20017;-75
2022/10/11 03:14:12;;;;;;;6.03;3.78;;;;;;;;;;5054122;28;20531;-76
2022/10/11 03:16:37;;;;;;;8.18;4.00;;;;;;;;;;5053953;28;20051;-76
2022/10/11 03:19:03;;;;;;;8.07;3.45;;;;;;;;;;5052374;28;20067;-76
2022/10/11 03:21:29;;;;;;;11.55;3.70;;;;;;;;;;5053583;28;20029;-75
2022/10/11 03:23:54;;;;;;;7.63;3.15;;;;;;;;;;5054131;28;20021;-76
2022/10/11 03:26:19;;;;;;;8.55;3.35;;;;;;;;;;5053765;28;20021;-76
2022/10/11 03:28:44;;;;;;;9.43;3.38;;;;;;;;;;5053887;28;20421;-76
2022/10/11 03:31:10;;;;;;;7.55;3.25;;;;;;;;;;5053628;28;20025;-76
2022/10/11 03:33:35;;;;;;;14.35;3.88;;;;;;;;;;5053748;28;20028;-76
2022/10/11 03:36:00;;;;;;;7.82;3.25;;;;;;;;;;5052106;28;20104;-76
2022/10/11 03:38:26;;;;;;;5.88;3.05;;;;;;;;;;5053304;28;20036;-76
2022/10/11 03:40:51;;;;;;;6.18;2.75;;;;;;;;;;5053546;28;20028;-76
2022/10/11 03:43:17;;;;;;;5.95;2.80;;;;;;;;;;5053315;28;20074;-76
2022/10/11 03:45:42;;;;;;;5.60;2.28;;;;;;;;;;5053204;28;20031;-77
2022/10/11 03:48:08;;;;;;;6.18;2.22;;;;;;;;;;5053587;28;20035;-77
2022/10/11 03:50:33;;;;;;;4.57;2.03;;;;;;;;;;5053183;28;20032;-76
2022/10/11 03:52:59;;;;;;;8.30;2.17;;;;;;;;;;5053210;28;20021;-77
2022/10/11 03:55:24;;;;;;;9.68;2.00;;;;;;;;;;5052665;28;20450;-77
2022/10/11 03:57:49;;;;;;;5.20;1.77;;;;;;;;;;5053456;28;20031;-75
2022/10/11 04:00:15;;;;;;;6.85;1.88;;;;;;;;;;5052930;28;20025;-75
2022/10/11 04:02:40;;;;;;;5.43;1.90;;;;;;;;;;5051958;28;20063;-76
2022/10/11 04:05:06;;;;;;;7.70;2.03;;;;;;;;;;5053030;28;20029;-76
2022/10/11 04:07:31;;;;;;;8.23;2.15;;;;;;;;;;5051693;28;20043;-77
2022/10/11 04:09:57;;;;;;;6.47;1.65;;;;;;;;;;5053406;28;20043;-76
2022/10/11 04:12:23;;;;;;;12.18;2.03;;;;;;;;;;5051740;28;20016;-76
2022/10/11 04:14:48;;;;;;;7.20;1.60;;;;;;;;;;5053217;28;20497;-76
2022/10/11 04:17:13;;;;;;;4.80;1.50;;;;;;;;;;5051662;28;20019;-75
2022/10/11 04:19:39;;;;;;;9.27;1.52;;;;;;;;;;5052536;28;20382;-77
2022/10/11 04:22:04;;;;;;;4.63;1.58;;;;;;;;;;5053249;28;20099;-76
2022/10/11 04:24:29;;;;;;;4.63;1.40;;;;;;;;;;5052916;28;20474;-76
2022/10/11 04:26:55;;;;;;;8.00;1.52;;;;;;;;;;5053146;28;20465;-76
2022/10/11 04:29:20;;;;;;;4.32;1.40;;;;;;;;;;5052879;28;20459;-77
2022/10/11 04:31:45;;;;;;;7.70;1.83;;;;;;;;;;5053046;28;20526;-77
2022/10/11 04:34:11;;;;;;;6.38;1.35;;;;;;;;;;5052768;28;20031;-76
2022/10/11 04:36:37;;;;;;;3.50;1.20;;;;;;;;;;5052751;28;20436;-75
2022/10/11 04:39:03;;;;;;;7.35;1.30;;;;;;;;;;5052720;28;20029;-75
2022/10/11 04:41:29;;;;;;;6.15;1.25;;;;;;;;;;5052676;28;20025;-76
2022/10/11 04:43:54;;;;;;;6.22;1.30;;;;;;;;;;5051385;28;20113;-76
2022/10/11 04:46:19;;;;;;;6.75;1.33;;;;;;;;;;5052668;28;20096;-76
2022/10/11 04:48:44;;;;;;;5.05;1.23;;;;;;;;;;5053272;28;20059;-76
2022/10/11 04:51:10;;;;;;;3.28;1.23;;;;;;;;;;5052741;28;20063;-77
2022/10/11 04:53:35;;;;;;;11.35;1.58;;;;;;;;;;5052918;28;20467;-76
2022/10/11 04:56:06;;;;;;;9.18;1.60;;;;;;;;;;5053054;28;20049;-77
2022/10/11 04:58:34;;;;;;;8.50;1.55;;;;;;;;;;5052736;28;20029;-76
2022/10/11 05:00:59;;;;;;;10.60;1.80;;;;;;;;;;5052807;28;20029;-77
2022/10/11 05:03:28;;;;;;;5.88;2.13;;;;;;;;;;5053452;28;20388;-77
2022/10/11 05:05:53;;;;;;;7.05;1.65;;;;;;;;;;5053514;28;20047;-76
2022/10/11 05:08:21;;;;;;;11.50;1.65;;;;;;;;;;5056545;28;20478;-76
2022/10/11 05:11:03;;;;;;;6.07;1.73;;;;;;;;;;5055083;28;20036;-77
2022/10/11 05:13:30;;;;;;;7.60;1.92;;;;;;;;;;5054826;28;20029;-76
2022/10/11 05:15:56;;;;;;;6.75;1.80;;;;;;;;;;5056026;28;20052;-76
2022/10/11 05:18:21;;;;;;;4.50;1.45;;;;;;;;;;5055831;28;20033;-76
2022/10/11 05:20:47;;;;;;;8.20;1.60;;;;;;;;;;5056298;28;20025;-76
2022/10/11 05:23:12;;;;;;;6.03;1.33;;;;;;;;;;5055741;28;20367;-76
2022/10/11 05:25:38;;;;;;;9.48;1.77;;;;;;;;;;5054249;28;20032;-76
2022/10/11 05:28:04;;;;;;;7.57;1.70;;;;;;;;;;5054246;28;20055;-76
2022/10/11 05:30:29;;;;;;;9.82;1.75;;;;;;;;;;5055653;28;20020;-76
2022/10/11 05:32:54;;;;;;;8.10;1.80;;;;;;;;;;5055735;28;20021;-76
2022/10/11 05:35:20;;;;;;;6.15;1.70;;;;;;;;;;5055526;28;20470;-75
2022/10/11 05:37:45;;;;;;;8.90;1.77;;;;;;;;;;5055578;28;20070;-75
2022/10/11 05:40:11;;;;;;;10.43;1.55;;;;;;;;;;5055319;28;20115;-76
2022/10/11 05:42:36;;;;;;;8.02;1.48;;;;;;;;;;5055857;28;20108;-76
2022/10/11 05:45:05;;;;;;;6.82;1.50;;;;;;;;;;5055559;28;20371;-76
2022/10/11 05:47:31;;;;;;;8.10;1.73;;;;;;;;;;5055270;28;20600;-77
2022/10/11 05:49:57;;;;;;;10.52;1.70;;;;;;;;;;5055264;28;20120;-76
2022/10/11 05:52:22;;;;;;;6.90;1.77;;;;;;;;;;5055094;28;20032;-76
2022/10/11 05:54:48;;;;;;;4.93;1.67;;;;;;;;;;5055096;28;20112;-76
2022/10/11 05:57:13;;;;;;;8.88;1.75;;;;;;;;;;5053705;28;20021;-76
2022/10/11 05:59:38;;;;;;;9.27;1.65;;;;;;;;;;5055282;28;20033;-76
2022/10/11 06:02:04;;;;;;;14.55;2.05;;;;;;;;;;5053694;28;20394;-77
2022/10/11 06:04:29;;;;;;;5.75;2.05;;;;;;;;;;5054916;28;20024;-76
2022/10/11 06:06:54;;;;;;;8.25;1.95;;;;;;;;;;5053501;28;20104;-75
2022/10/11 06:09:20;;;;;;;12.18;1.80;;;;;;;;;;5054683;28;20029;-76
2022/10/11 06:11:45;;;;;;;5.63;1.50;;;;;;;;;;5054720;28;20029;-76
2022/10/11 06:14:10;;;;;;;7.97;1.60;;;;;;;;;;5054710;28;20082;-76
2022/10/11 06:16:36;;;;;;;10.00;1.90;;;;;;;;;;5054367;28;20040;-76
2022/10/11 06:19:03;;;;;;;8.65;1.95;;;;;;;;;;5054945;28;20449;-77
2022/10/11 06:21:28;;;;;;;11.18;1.90;;;;;;;;;;5054822;28;20397;-76
2022/10/11 06:23:53;;;;;;;9.70;1.85;;;;;;;;;;5054580;28;20032;-76
2022/10/11 06:26:19;;;;;;;10.75;2.15;;;;;;;;;;5054498;28;20111;-77
2022/10/11 06:28:45;;;;;;;6.55;1.48;;;;;;;;;;5053223;28;20075;-76
2022/10/11 06:31:10;;;;;;;11.80;2.05;;;;;;;;;;5053436;28;20474;-75
2022/10/11 06:33:38;;;;;;;4.22;1.60;;;;;;;;;;5054763;28;20024;-77
2022/10/11 06:36:06;;;;;;;9.32;2.17;;;;;;;;;;5053648;28;20028;-76
2022/10/11 06:38:32;;;;;;;7.97;2.00;;;;;;;;;;5054115;28;20044;-75
2022/10/11 06:41:08;;;;;;;8.52;1.90;;;;;;;;;;5054386;28;20033;-76
2022/10/11 06:43:33;;;;;;;7.68;2.40;;;;;;;;;;5054276;28;20544;-76
2022/10/11 06:45:58;;;;;;;8.30;2.10;;;;;;;;;;5053935;28;20024;-75
2022/10/11 06:48:24;;;;;;;15.07;2.13;;;;;;;;;;5054332;28;20486;-76
2022/10/11 06:50:49;;;;;;;11.32;2.03;;;;;;;;;;5054302;28;20075;-76
2022/10/11 06:53:14;;;;;;;7.47;2.13;;;;;;;;;;5052558;28;20508;-75
2022/10/11 06:55:40;;;;;;;5.43;2.05;;;;;;;;;;5053828;28;20043;-75
2022/10/11 06:58:05;;;;;;;8.85;1.98;;;;;;;;;;5053885;28;20409;-74
2022/10/11 07:00:30;;;;;;;11.98;2.08;;;;;;;;;;5052864;28;20386;-75
2022/10/11 07:02:55;;;;;;;7.88;2.10;;;;;;;;;;5052345;28;20029;-76
2022/10/11 07:05:21;;;;;;;12.20;2.20;;;;;;;;;;5053736;28;20083;-75
2022/10/11 07:07:46;;;;;;;10.73;2.25;;;;;;;;;;5053557;28;20032;-75
2022/10/11 07:10:11;;;;;;;8.23;2.20;;;;;;;;;;5053787;28;20492;-77
2022/10/11 07:12:37;;;;;;;10.80;2.15;;;;;;;;;;5053519;28;20033;-76
2022/10/11 07:15:02;;;;;;;10.35;1.90;;;;;;;;;;5052163;28;20024;-76
2022/10/11 07:17:28;;;;;;;14.00;2.20;;;;;;;;;;5053526;28;20537;-75
2022/10/11 07:19:53;;;;;;;6.28;1.70;;;;;;;;;;5054662;28;20035;-76
2022/10/11 07:22:18;;;;;;;9.32;1.98;;;;;;;;;;5053766;28;20025;-75
2022/10/11 07:24:43;;;;;;;8.57;1.80;;;;;;;;;;5052513;28;20428;-76
2022/10/11 07:27:09;;;;;;;7.18;2.63;;;;;;;;;;5053504;28;20017;-76
2022/10/11 07:29:34;;;;;;;16.52;2.53;;;;;;;;;;5052750;28;20055;-77
2022/10/11 07:32:00;;;;;;;9.63;2.20;;;;;;;;;;5053333;28;20037;-75
2022/10/11 07:34:25;;;;;;;6.85;2.05;;;;;;;;;;5052076;28;20048;-75
2022/10/11 07:36:51;;;;;;;13.05;2.40;;;;;;;;;;5052120;28;20529;-76
2022/10/11 07:39:16;;;;;;;12.95;2.05;;;;;;;;;;5053216;28;20036;-76
2022/10/11 07:41:41;;;;;;;11.13;2.38;;;;;;;;;;5053024;28;20410;-76
2022/10/11 07:44:06;;;;;;;9.80;2.35;;;;;;;;;;5051756;28;20032;-77
2022/10/11 07:46:32;;;;;;;7.43;2.08;;;;;;;;;;5053594;28;20474;-76
2022/10/11 07:48:57;;;;;;;11.45;2.35;;;;;;;;;;5053281;28;20036;-76
2022/10/11 07:51:24;;;;;;;8.25;1.92;;;;;;;;;;5051733;28;20555;-76
2022/10/11 07:53:54;;;;;;;8.93;2.05;;;;;;;;;;5053065;28;20536;-76
2022/10/11 07:56:23;;;;;;;9.68;2.25;;;;;;;;;;5053360;28;20048;-77
2022/10/11 07:58:50;;;;;;;17.42;2.20;;;;;;;;;;5053195;28;20035;-76
2022/10/11 08:01:16;;;;;;;8.40;2.20;;;;;;;;;;5052894;28;20055;-76
2022/10/11 08:03:41;;;;;;;9.32;2.22;;;;;;;;;;5051823;28;20442;-77
2022/10/11 08:06:08;;;;;;;6.20;1.70;;;;;;;;;;5053374;28;20063;-76
2022/10/11 08:08:34;;;;;;;9.00;2.80;;;;;;;;;;5053049;28;20037;-77
2022/10/11 08:11:05;;;;;;;12.80;2.22;;;;;;;;;;5053231;28;20075;-77
2022/10/11 08:13:31;;;;;;;12.27;2.85;;;;;;;;;;5052834;28;20029;-76
2022/10/11 08:15:56;;;;;;;8.60;2.20;;;;;;;;;;5052638;28;20478;-77
2022/10/11 08:18:21;;;;;;;8.82;2.00;;;;;;;;;;5052870;28;20401;-77
2022/10/11 08:20:47;;;;;;;11.32;2.30;;;;;;;;;;5051492;28;20422;-76
2022/10/11 08:23:13;;;;;;;9.50;1.95;;;;;;;;;;5053182;28;20482;-76
2022/10/11 08:25:41;;;;;;;9.43;2.03;;;;;;;;;;5052928;28;20025;-76
2022/10/11 08:28:07;;;;;;;10.27;2.00;;;;;;;;;;5052612;28;20025;-77
2022/10/11 08:30:33;;;;;;;15.70;2.25;;;;;;;;;;5051231;28;20078;-77
2022/10/11 08:32:58;;;;;;;14.50;2.00;;;;;;;;;;5052842;28;20435;-76
2022/10/11 08:35:24;;;;;;;8.75;2.20;;;;;;;;;;5051319;28;20029;-76
2022/10/11 08:37:49;;;;;;;8.80;2.10;;;;;;;;;;5052771;28;20017;-77
2022/10/11 08:40:17;;;;;;;11.00;2.13;;;;;;;;;;5054052;28;20104;-76
2022/10/11 08:43:14;;;;;;;12.75;2.03;;;;;;;;;;5055149;28;20027;-76
2022/10/11 08:45:49;;;;;;;11.65;1.95;;;;;;;;;;5056244;28;20027;-76
2022/10/11 08:48:18;;;;;;;12.32;2.00;;;;;;;;;;5056391;28;20040;-76
2022/10/11 08:50:48;;;;;;;11.05;1.85;;;;;;;;;;5056353;28;20129;-76
2022/10/11 08:53:31;;;;;;;7.78;2.15;;;;;;;;;;5055060;28;20024;-76
2022/10/11 08:55:56;;;;;;;8.55;1.83;;;;;;;;;;5055994;28;20029;-77
2022/10/11 08:58:36;;;;;;;9.35;1.67;;;;;;;;;;5056271;28;20102;-76
2022/10/11 09:01:03;;;;;;;8.38;1.80;;;;;;;;;;5056092;28;20033;-76
2022/10/11 09:03:41;;;;;;;13.98;1.98;;;;;;;;;;5056433;28;20033;-76
2022/10/11 09:06:25;;;;;;;14.20;2.08;;;;;;;;;;5056085;28;20474;-76
2022/10/11 09:09:05;;;;;;;5.63;1.45;;;;;;;;;;5056399;28;20033;-76
2022/10/11 09:11:54;;;;;;;6.60;1.50;;;;;;;;;;5054687;28;20128;-77
2022/10/11 09:14:48;;;;;;;9.68;2.30;;;;;;;;;;5056125;28;20112;-77
2022/10/11 09:17:31;;;;;;;9.85;2.15;;;;;;;;;;5056341;28;20429;-76
2022/10/11 09:20:02;;;;;;;7.32;2.03;;;;;;;;;;5054765;28;20029;-76
2022/10/11 09:22:32;;;;;;;7.38;2.20;;;;;;;;;;5056090;28;20021;-77
2022/10/11 09:25:10;;;;;;;15.45;1.92;;;;;;;;;;5055862;28;20021;-75
2022/10/11 09:27:53;;;;;;;9.63;1.67;;;;;;;;;;5055932;28;20496;-76
2022/10/11 09:30:19;;;;;;;13.48;1.95;;;;;;;;;;5054418;28;20079;-76
2022/10/11 09:32:52;;;;;;;15.60;2.20;;;;;;;;;;5056257;28;20052;-77
2022/10/11 09:35:19;;;;;;;10.05;1.50;;;;;;;;;;5055978;28;20040;-76
2022/10/11 09:37:56;;;;;;;10.45;2.08;;;;;;;;;;5055935;28;20082;-76
2022/10/11 09:40:27;;;;;;;9.27;1.63;;;;;;;;;;5054249;28;20367;-76
2022/10/11 09:42:52;;;;;;;14.73;2.13;;;;;;;;;;5055792;28;20107;-75
2022/10/11 09:45:20;;;;;;;10.43;1.70;;;;;;;;;;5054122;28;20169;-76
2022/10/11 09:47:48;;;;;;;10.20;2.45;;;;;;;;;;5055253;28;20457;-76
2022/10/11 09:50:17;;;;;;;6.57;1.38;;;;;;;;;;5055710;28;20029;-76
2022/10/11 09:52:53;;;;;;;10.13;1.40;;;;;;;;;;5054015;28;20474;-76
2022/10/11 09:55:49;;;;;;;8.05;1.40;;;;;;;;;;5055515;28;20466;-76
2022/10/11 09:58:34;;;;;;;6.75;1.40;;;;;;;;;;5042399;28;20107;-76
2022/10/11 10:01:04;;;;;;;10.10;1.38;;;;;;;;;;5053650;28;20025;-76
2022/10/11 10:03:35;;;;;;;9.30;1.30;;;;;;;;;;5055225;28;20028;-76
2022/10/11 10:06:10;;;;;;;9.85;1.70;;;;;;;;;;5055247;28;20401;-75
2022/10/11 10:08:36;;;;;;;8.90;1.40;;;;;;;;;;5055015;28;20025;-76
2022/10/11 10:11:04;;;;;;;9.80;1.73;;;;;;;;;;5054899;28;20407;-76
2022/10/11 10:13:35;;;;;;;6.63;1.25;;;;;;;;;;5054837;28;20029;-76
2022/10/11 10:16:02;;;;;;;9.77;1.17;;;;;;;;;;5054819;28;20025;-75
2022/10/11 10:18:35;;;;;;;12.48;1.67;;;;;;;;;;5054757;28;20028;-77
2022/10/11 10:21:02;;;;;;;7.07;1.50;;;;;;;;;;5053823;28;20036;-78
2022/10/11 10:23:33;;;;;;;8.52;1.55;;;;;;;;;;5054889;28;20060;-75
2022/10/11 10:26:20;;;;;;;7.80;1.17;;;;;;;;;;5053323;28;20036;-76
2022/10/11 10:28:59;;;;;;;8.15;1.40;;;;;;;;;;5054566;28;20021;-76
2022/10/11 10:31:31;;;;;;;11.55;1.40;;;;;;;;;;5054528;28;20029;-76
2022/10/11 10:33:57;;;;;;;11.38;1.60;;;;;;;;;;5053211;28;20029;-76
2022/10/11 10:36:32;;;;;;;7.93;1.05;;;;;;;;;;5054556;28;20024;-77
2022/10/11 10:39:05;;;;;;;8.48;1.40;;;;;;;;;;5053156;28;20516;-77
2022/10/11 10:41:31;;;;;;;9.30;1.30;;;;;;;;;;5053657;28;20070;-75
2022/10/11 10:43:58;;;;;;;6.90;1.02;;;;;;;;;;5054548;28;20104;-76
2022/10/11 10:46:32;;;;;;;10.20;1.40;;;;;;;;;;5054053;28;20036;-77
2022/10/11 10:49:08;;;;;;;4.75;1.10;;;;;;;;;;5054462;28;20482;-77
2022/10/11 10:52:04;;;;;;;5.13;1.00;;;;;;;;;;5054086;28;20025;-76
2022/10/11 10:54:55;;;;;;;9.13;1.50;;;;;;;;;;5054420;28;20153;-77
2022/10/11 10:57:51;;;;;;;5.22;1.05;;;;;;;;;;5055273;28;20021;-76
2022/10/11 11:00:19;;;;;;;9.35;1.00;;;;;;;;;;5054156;28;20057;-77
2022/10/11 11:02:59;;;;;;;7.88;1.20;;;;;;;;;;5053981;28;20036;-77
2022/10/11 11:05:52;;;;;;;10.88;1.20;;;;;;;;;;5052272;28;20569;-77
2022/10/11 11:08:42;;;;;;;13.00;1.35;;;;;;;;;;5053911;28;20040;-76
2022/10/11 11:11:28;;;;;;;9.55;1.38;;;;;;;;;;5053807;28;20092;-76
2022/10/11 11:14:13;;;;;;;8.45;1.23;;;;;;;;;;5053878;28;20508;-76
2022/10/11 11:16:49;;;;;;;8.18;1.30;;;;;;;;;;5054174;28;20067;-78
2022/10/11 11:19:17;;;;;;;9.15;1.42;;;;;;;;;;5053989;28;20025;-77
2022/10/11 11:22:03;;;;;;;8.77;1.38;;;;;;;;;;5053601;28;20033;-76
2022/10/11 11:24:47;;;;;;;4.75;1.10;;;;;;;;;;5053904;28;20068;-76
2022/10/11 11:27:40;;;;;;;4.85;1.20;;;;;;;;;;5053447;28;20371;-76
2022/10/11 11:30:10;;;;;;;6.97;1.17;;;;;;;;;;5053796;28;20032;-77
2022/10/11 11:33:05;;;;;;;6.28;1.05;;;;;;;;;;5053407;28;20025;-76
2022/10/11 11:35:41;;;;;;;9.13;1.33;;;;;;;;;;5053606;28;20029;-76
2022/10/11 11:38:21;;;;;;;5.22;1.00;;;;;;;;;;5052113;28;20017;-77
2022/10/11 11:40:56;;;;;;;6.18;1.10;;;;;;;;;;5053217;28;20127;-75
2022/10/11 11:44:02;;;;;;;9.23;1.25;;;;;;;;;;5052020;28;20021;-77
2022/10/11 11:46:34;;;;;;;6.43;1.00;;;;;;;;;;5053429;28;20032;-76
2022/10/11 11:49:04;;;;;;;4.00;0.90;;;;;;;;;;5052062;28;20060;-77
2022/10/11 11:51:35;;;;;;;4.97;1.10;;;;;;;;;;5053296;28;20074;-76
2022/10/11 11:54:27;;;;;;;5.10;0.90;;;;;;;;;;5052050;28;20025;-77
2022/10/11 11:57:14;;;;;;;8.95;1.40;;;;;;;;;;5053205;28;20032;-77
2022/10/11 12:00:05;;;;;;;8.15;1.20;;;;;;;;;;5053168;28;20047;-76
2022/10/11 12:02:43;;;;;;;6.70;1.10;;;;;;;;;;5052947;28;20033;-76
2022/10/11 12:05:12;;;;;;;6.68;1.10;;;;;;;;;;5053169;28;20025;-77
2022/10/11 12:08:02;;;;;;;4.07;1.00;;;;;;;;;;5053187;28;20111;-77
2022/10/11 12:10:37;;;;;;;5.38;0.93;;;;;;;;;;5053125;28;20033;-76
2022/10/11 12:13:17;;;;;;;6.82;1.00;;;;;;;;;;5052775;28;20025;-76
2022/10/11 12:16:04;;;;;;;8.48;1.27;;;;;;;;;;5057164;28;20032;-76
2022/10/11 12:18:31;;;;;;;9.18;1.40;;;;;;;;;;5059421;28;20025;-76
2022/10/11 12:21:06;;;;;;;6.75;1.25;;;;;;;;;;5059303;28;20120;-77
2022/10/11 12:23:38;;;;;;;8.85;1.10;;;;;;;;;;5059107;28;20025;-76
2022/10/11 12:26:19;;;;;;;10.70;1.20;;;;;;;;;;5058425;28;20051;-77
2022/10/11 12:29:06;;;;;;;3.63;1.20;;;;;;;;;;5059502;28;20113;-76
2022/10/11 12:31:34;;;;;;;4.07;0.98;;;;;;;;;;5017870;28;20504;-76
2022/10/11 12:33:59;;;;;;;6.30;1.10;;;;;;;;;;5058030;28;20053;-76
2022/10/11 12:36:31;;;;;;;5.45;1.05;;;;;;;;;;5058019;28;20488;-77
2022/10/11 12:39:18;;;;;;;3.47;1.02;;;;;;;;;;5059223;28;20367;-77
2022/10/11 12:41:54;;;;;;;4.07;1.20;;;;;;;;;;5057888;28;20059;-76
2022/10/11 12:44:29;;;;;;;7.78;1.48;;;;;;;;;;5058053;28;20028;-77
2022/10/11 12:46:54;;;;;;;6.57;1.25;;;;;;;;;;5059582;28;20075;-76
2022/10/11 12:49:39;;;;;;;5.05;1.05;;;;;;;;;;5059573;28;20104;-76
2022/10/11 12:52:17;;;;;;;5.57;1.08;;;;;;;;;;5059138;28;20029;-76
2022/10/11 12:55:01;;;;;;;7.25;1.23;;;;;;;;;;5057770;28;20494;-76
2022/10/11 12:57:50;;;;;;;4.90;1.23;;;;;;;;;;5059324;28;20556;-77
2022/10/11 13:00:50;;;;;;;8.45;0.98;;;;;;;;;;5057814;28;20067;-76
2022/10/11 13:03:40;;;;;;;9.50;1.50;;;;;;;;;;5059123;28;20025;-76
2022/10/11 13:06:19;;;;;;;5.90;1.20;;;;;;;;;;5059093;28;20021;-76
2022/10/11 13:08:52;;;;;;;8.27;1.50;;;;;;;;;;5059564;28;20039;-76
2022/10/11 13:11:24;;;;;;;1.50;0.70;;;;;;;;;;5057872;28;20024;-75
2022/10/11 13:13:54;;;;;;;5.80;0.93;;;;;;;;;;5059188;28;20025;-76
2022/10/11 13:16:28;;;;;;;5.20;1.08;;;;;;;;;;5059453;28;20044;-75
2022/10/11 13:18:56;;;;;;;;;;;;;;;;;;5059802;28;20420;-75
2022/10/11 13:21:35;;;;;;;7.07;1.20;;;;;;;;;;5057598;28;19954;-76
2022/10/11 13:24:06;;;;;;;4.20;0.88;;;;;;;;;;5059327;28;20111;-76
2022/10/11 13:26:31;;;;;;;5.35;1.10;;;;;;;;;;5058233;28;20100;-76
2022/10/11 13:28:59;;;;;;;8.35;1.45;;;;;;;;;;5055822;28;20090;-76
2022/10/11 13:31:24;;;;;;;8.52;0.95;;;;;;;;;;5055732;28;20021;-76
2022/10/11 13:33:53;;;;;;;6.47;1.63;;;;;;;;;;5054439;28;20029;-75
2022/10/11 13:36:20;;;;;;;4.30;1.30;;;;;;;;;;5054349;28;20013;-76
2022/10/11 13:38:53;;;;;;;4.10;1.13;;;;;;;;;;5054431;28;20437;-76
2022/10/11 13:41:19;;;;;;;4.95;1.08;;;;;;;;;;5055763;28;20025;-76
2022/10/11 13:43:44;;;;;;;5.53;1.13;;;;;;;;;;5055829;28;20024;-76
2022/10/11 13:46:18;;;;;;;6.80;1.02;;;;;;;;;;5055923;28;20074;-77
2022/10/11 13:48:44;;;;;;;5.55;1.00;;;;;;;;;;5055833;28;20502;-77
2022/10/11 13:51:26;;;;;;;7.35;1.15;;;;;;;;;;5054364;28;20056;-76
2022/10/11 13:54:05;;;;;;;6.57;1.10;;;;;;;;;;5055330;28;20090;-76
2022/10/11 13:56:36;;;;;;;5.18;1.13;;;;;;;;;;5054173;28;20056;-76
2022/10/11 13:59:02;;;;;;;5.75;1.00;;;;;;;;;;5053925;28;20025;-76
2022/10/11 14:01:36;;;;;;;11.55;1.55;;;;;;;;;;5054995;28;20566;-77
2022/10/11 14:04:05;;;;;;;5.47;1.30;;;;;;;;;;5055311;28;20111;-78
2022/10/11 14:07:16;;;;;;;6.30;1.25;;;;;;;;;;5055431;28;20029;-76
2022/10/11 14:09:45;;;;;;;5.88;1.40;;;;;;;;;;4993474;28;20064;-76
2022/10/11 14:12:32;;;;;;;5.82;1.52;;;;;;;;;;5048243;28;20088;-76
2022/10/11 14:14:59;;;;;;;7.90;1.27;;;;;;;;;;5054977;28;20029;-76
2022/10/11 14:17:42;;;;;;;5.30;1.30;;;;;;;;;;5054789;28;20021;-76
2022/10/11 14:20:08;;;;;;;3.00;1.00;;;;;;;;;;5055050;28;20040;-77
2022/10/11 14:22:33;;;;;;;3.92;0.90;;;;;;;;;;5054683;28;20040;-76
2022/10/11 14:24:59;;;;;;;5.75;0.90;;;;;;;;;;5054900;28;20424;-75
2022/10/11 14:27:26;;;;;;;8.00;1.30;;;;;;;;;;5054861;28;20096;-76
2022/10/11 14:29:52;;;;;;;7.32;1.10;;;;;;;;;;5053368;28;20402;-76
2022/10/11 14:32:23;;;;;;;10.13;1.33;;;;;;;;;;5053145;28;20017;-76
2022/10/11 14:34:48;;;;;;;13.73;1.88;;;;;;;;;;5054821;28;20429;-76
2022/10/11 14:37:15;;;;;;;5.15;1.08;;;;;;;;;;5054367;28;20025;-77
2022/10/11 14:39:41;;;;;;;8.40;1.00;;;;;;;;;;5054383;28;20021;-75
2022/10/11 14:42:07;;;;;;;6.35;1.02;;;;;;;;;;5052867;28;20024;-75
2022/10/11 14:44:32;;;;;;;5.07;1.15;;;;;;;;;;5054346;28;20551;-75
2022/10/11 14:46:58;;;;;;;4.05;0.82;;;;;;;;;;5054283;28;20375;-76
2022/10/11 14:49:26;;;;;;;3.08;1.00;;;;;;;;;;5052856;28;20416;-77
2022/10/11 14:51:54;;;;;;;8.80;1.60;;;;;;;;;;5052729;28;20033;-76
2022/10/11 14:54:22;;;;;;;6.88;1.27;;;;;;;;;;5054077;28;20044;-76
2022/10/11 14:56:49;;;;;;;8.68;1.33;;;;;;;;;;5052996;28;20017;-76
2022/10/11 14:59:16;;;;;;;7.72;1.20;;;;;;;;;;5054038;28;20085;-76
2022/10/11 15:01:42;;;;;;;9.45;1.35;;;;;;;;;;5053870;28;20025;-76
2022/10/11 15:04:08;;;;;;;6.15;1.20;;;;;;;;;;5053926;28;20390;-76